sensor_id;sensor_type;location;lat;lon;timestamp;pressure;altitude;pressure_sealevel;temperature;humidity
47726;BME280;33483;48.294;16.388;2023-08-06T00:00:45;98396.47;;;15.70;100.00
47726;BME280;33483;48.294;16.388;2023-08-06T00:03:35;98402.75;;;15.71;100.00
47726;BME280;33483;48.294;16.388;2023-08-06T00:06:05;98384.09;;;15.73;100.00
47726;BME280;33483;48.294;16.388;2023-08-06T00:08:33;98388.78;;;15.71;100.00
47726;BME280;33483;48.294;16.388;2023-08-06T00:11:00;98388.94;;;15.73;100.00
47726;BME280;33483;48.294;16.388;2023-08-06T00:13:27;98387.34;;;15.70;100.00
47726;BME280;33483;48.294;16.388;2023-08-06T00:16:07;98392.63;;;15.66;100.00
47726;BME280;33483;48.294;16.388;2023-08-06T00:18:39;98380.16;;;15.67;100.00
47726;BME280;33483;48.294;16.388;2023-08-06T00:21:09;98383.66;;;15.67;100.00
47726;BME280;33483;48.294;16.388;2023-08-06T00:23:36;98380.75;;;15.65;100.00
47726;BME280;33483;48.294;16.388;2023-08-06T00:26:03;98390.72;;;15.68;100.00
47726;BME280;33483;48.294;16.388;2023-08-06T00:28:30;98406.00;;;15.67;100.00
47726;BME280;33483;48.294;16.388;2023-08-06T00:30:57;98396.16;;;15.66;100.00
47726;BME280;33483;48.294;16.388;2023-08-06T00:33:25;98396.59;;;15.63;100.00
47726;BME280;33483;48.294;16.388;2023-08-06T00:35:52;98396.00;;;15.64;100.00
47726;BME280;33483;48.294;16.388;2023-08-06T00:38:19;98388.97;;;15.63;100.00
47726;BME280;33483;48.294;16.388;2023-08-06T00:40:47;98398.66;;;15.62;100.00
47726;BME280;33483;48.294;16.388;2023-08-06T00:43:14;98380.28;;;15.59;100.00
47726;BME280;33483;48.294;16.388;2023-08-06T00:45:41;98382.34;;;15.59;100.00
47726;BME280;33483;48.294;16.388;2023-08-06T00:48:09;98382.19;;;15.57;100.00
47726;BME280;33483;48.294;16.388;2023-08-06T00:50:36;98382.34;;;15.59;100.00
47726;BME280;33483;48.294;16.388;2023-08-06T00:53:04;98382.94;;;15.57;100.00
47726;BME280;33483;48.294;16.388;2023-08-06T00:55:32;98386.03;;;15.61;100.00
47726;BME280;33483;48.294;16.388;2023-08-06T00:58:00;98382.50;;;15.61;100.00
47726;BME280;33483;48.294;16.388;2023-08-06T01:00:30;98378.97;;;15.60;100.00
47726;BME280;33483;48.294;16.388;2023-08-06T01:02:57;98368.38;;;15.59;100.00
47726;BME280;33483;48.294;16.388;2023-08-06T01:05:27;98370.59;;;15.60;100.00
47726;BME280;33483;48.294;16.388;2023-08-06T01:13:27;98346.34;;;15.53;100.00
47726;BME280;33483;48.294;16.388;2023-08-06T01:16:01;98340.03;;;15.53;100.00
47726;BME280;33483;48.294;16.388;2023-08-06T01:18:28;98342.84;;;15.53;100.00
47726;BME280;33483;48.294;16.388;2023-08-06T01:20:59;98339.16;;;15.50;100.00
47726;BME280;33483;48.294;16.388;2023-08-06T01:23:26;98337.69;;;15.49;100.00
47726;BME280;33483;48.294;16.388;2023-08-06T01:26:00;98334.16;;;15.49;100.00
47726;BME280;33483;48.294;16.388;2023-08-06T01:28:40;98333.41;;;15.48;100.00
47726;BME280;33483;48.294;16.388;2023-08-06T01:31:10;98326.22;;;15.45;100.00
47726;BME280;33483;48.294;16.388;2023-08-06T01:33:43;98339.44;;;15.45;100.00
47726;BME280;33483;48.294;16.388;2023-08-06T01:36:15;98335.66;;;15.40;100.00
47726;BME280;33483;48.294;16.388;2023-08-06T01:38:43;98335.47;;;15.38;100.00
47726;BME280;33483;48.294;16.388;2023-08-06T01:41:10;98334.72;;;15.38;100.00
47726;BME280;33483;48.294;16.388;2023-08-06T01:43:40;98329.16;;;15.38;100.00
47726;BME280;33483;48.294;16.388;2023-08-06T01:46:08;98320.75;;;15.38;100.00
47726;BME280;33483;48.294;16.388;2023-08-06T01:48:35;98317.84;;;15.36;100.00
47726;BME280;33483;48.294;16.388;2023-08-06T01:51:05;98326.78;;;15.34;100.00
47726;BME280;33483;48.294;16.388;2023-08-06T01:53:35;98328.44;;;15.37;100.00
47726;BME280;33483;48.294;16.388;2023-08-06T01:56:02;98325.50;;;15.35;100.00
47726;BME280;33483;48.294;16.388;2023-08-06T01:58:32;98323.75;;;15.30;100.00
47726;BME280;33483;48.294;16.388;2023-08-06T02:01:02;98310.63;;;15.33;100.00
47726;BME280;33483;48.294;16.388;2023-08-06T02:03:29;98313.00;;;15.27;100.00
47726;BME280;33483;48.294;16.388;2023-08-06T02:05:56;98303.75;;;15.24;100.00
47726;BME280;33483;48.294;16.388;2023-08-06T02:08:26;98300.22;;;15.24;100.00
47726;BME280;33483;48.294;16.388;2023-08-06T02:10:55;98299.78;;;15.18;100.00
47726;BME280;33483;48.294;16.388;2023-08-06T02:13:26;98296.13;;;15.15;100.00
47726;BME280;33483;48.294;16.388;2023-08-06T02:15:53;98300.25;;;15.14;100.00
47726;BME280;33483;48.294;16.388;2023-08-06T02:18:20;98292.47;;;15.13;100.00
47726;BME280;33483;48.294;16.388;2023-08-06T02:20:57;98293.06;;;15.11;100.00
47726;BME280;33483;48.294;16.388;2023-08-06T02:23:27;98290.25;;;15.11;100.00
47726;BME280;33483;48.294;16.388;2023-08-06T02:26:12;98282.94;;;15.06;100.00
47726;BME280;33483;48.294;16.388;2023-08-06T02:28:39;98288.63;;;15.08;100.00
47726;BME280;33483;48.294;16.388;2023-08-06T02:31:06;98282.94;;;15.06;100.00
47726;BME280;33483;48.294;16.388;2023-08-06T02:33:37;98286.28;;;15.05;100.00
47726;BME280;33483;48.294;16.388;2023-08-06T02:36:04;98271.63;;;15.04;100.00
47726;BME280;33483;48.294;16.388;2023-08-06T02:38:31;98279.25;;;15.04;100.00
47726;BME280;33483;48.294;16.388;2023-08-06T02:40:59;98268.69;;;15.02;100.00
47726;BME280;33483;48.294;16.388;2023-08-06T02:43:28;98263.25;;;15.04;100.00
47726;BME280;33483;48.294;16.388;2023-08-06T02:45:58;98250.59;;;15.03;100.00
47726;BME280;33483;48.294;16.388;2023-08-06T02:48:26;98262.34;;;15.02;100.00
47726;BME280;33483;48.294;16.388;2023-08-06T02:50:56;98262.94;;;15.00;100.00
47726;BME280;33483;48.294;16.388;2023-08-06T02:53:27;98251.94;;;15.02;100.00
47726;BME280;33483;48.294;16.388;2023-08-06T02:55:55;98249.00;;;15.00;100.00
47726;BME280;33483;48.294;16.388;2023-08-06T02:58:29;98253.97;;;15.02;100.00
47726;BME280;33483;48.294;16.388;2023-08-06T03:01:07;98252.53;;;15.01;100.00
47726;BME280;33483;48.294;16.388;2023-08-06T03:03:44;98250.00;;;15.05;100.00
47726;BME280;33483;48.294;16.388;2023-08-06T03:06:18;98256.34;;;15.05;100.00
47726;BME280;33483;48.294;16.388;2023-08-06T03:08:49;98261.16;;;15.14;100.00
47726;BME280;33483;48.294;16.388;2023-08-06T03:11:16;98258.81;;;15.11;100.00
47726;BME280;33483;48.294;16.388;2023-08-06T03:13:48;98258.81;;;15.11;100.00
47726;BME280;33483;48.294;16.388;2023-08-06T03:16:17;98258.09;;;15.10;100.00
47726;BME280;33483;48.294;16.388;2023-08-06T03:18:45;98259.56;;;15.11;100.00
47726;BME280;33483;48.294;16.388;2023-08-06T03:21:12;98270.72;;;15.11;100.00
47726;BME280;33483;48.294;16.388;2023-08-06T03:23:39;98260.28;;;15.12;100.00
47726;BME280;33483;48.294;16.388;2023-08-06T03:26:06;98263.97;;;15.14;100.00
47726;BME280;33483;48.294;16.388;2023-08-06T03:28:33;98268.22;;;15.15;100.00
47726;BME280;33483;48.294;16.388;2023-08-06T03:31:01;98265.41;;;15.15;100.00
47726;BME280;33483;48.294;16.388;2023-08-06T03:33:36;98273.94;;;15.17;100.00
47726;BME280;33483;48.294;16.388;2023-08-06T03:36:07;98269.41;;;15.22;100.00
47726;BME280;33483;48.294;16.388;2023-08-06T03:38:35;98271.59;;;15.23;100.00
47726;BME280;33483;48.294;16.388;2023-08-06T03:41:05;98268.06;;;15.23;100.00
47726;BME280;33483;48.294;16.388;2023-08-06T03:43:32;98262.03;;;15.26;100.00
47726;BME280;33483;48.294;16.388;2023-08-06T03:46:01;98248.06;;;15.26;100.00
47726;BME280;33483;48.294;16.388;2023-08-06T03:48:28;98231.31;;;15.26;100.00
47726;BME280;33483;48.294;16.388;2023-08-06T03:50:55;98250.41;;;15.30;100.00
47726;BME280;33483;48.294;16.388;2023-08-06T03:53:25;98244.97;;;15.32;100.00
47726;BME280;33483;48.294;16.388;2023-08-06T03:55:52;98240.69;;;15.31;100.00
47726;BME280;33483;48.294;16.388;2023-08-06T03:58:21;98236.59;;;15.32;100.00
47726;BME280;33483;48.294;16.388;2023-08-06T04:00:48;98241.28;;;15.39;100.00
47726;BME280;33483;48.294;16.388;2023-08-06T04:03:24;98253.50;;;15.43;100.00
47726;BME280;33483;48.294;16.388;2023-08-06T04:05:51;98236.03;;;15.43;100.00
47726;BME280;33483;48.294;16.388;2023-08-06T04:08:19;98250.84;;;15.45;100.00
47726;BME280;33483;48.294;16.388;2023-08-06T04:10:49;98259.50;;;15.49;100.00
47726;BME280;33483;48.294;16.388;2023-08-06T04:13:16;98255.66;;;15.54;100.00
47726;BME280;33483;48.294;16.388;2023-08-06T04:15:44;98257.13;;;15.55;100.00
47726;BME280;33483;48.294;16.388;2023-08-06T04:18:11;98256.88;;;15.51;100.00
47726;BME280;33483;48.294;16.388;2023-08-06T04:20:47;98246.69;;;15.56;100.00
47726;BME280;33483;48.294;16.388;2023-08-06T04:23:16;98250.81;;;15.55;100.00
47726;BME280;33483;48.294;16.388;2023-08-06T04:25:43;98249.63;;;15.58;100.00
47726;BME280;33483;48.294;16.388;2023-08-06T04:28:10;98249.63;;;15.58;100.00
47726;BME280;33483;48.294;16.388;2023-08-06T04:30:37;98240.50;;;15.57;100.00
47726;BME280;33483;48.294;16.388;2023-08-06T04:33:08;98236.53;;;15.60;100.00
47726;BME280;33483;48.294;16.388;2023-08-06T04:35:35;98236.06;;;15.64;100.00
47726;BME280;33483;48.294;16.388;2023-08-06T04:38:02;98236.81;;;15.64;100.00
47726;BME280;33483;48.294;16.388;2023-08-06T04:40:29;98226.38;;;15.65;100.00
47726;BME280;33483;48.294;16.388;2023-08-06T04:42:56;98237.09;;;15.68;100.00
47726;BME280;33483;48.294;16.388;2023-08-06T04:45:23;98244.59;;;15.66;100.00
47726;BME280;33483;48.294;16.388;2023-08-06T04:47:51;98248.28;;;15.68;100.00
47726;BME280;33483;48.294;16.388;2023-08-06T04:50:19;98248.13;;;15.66;100.00
47726;BME280;33483;48.294;16.388;2023-08-06T04:52:46;98248.41;;;15.70;100.00
47726;BME280;33483;48.294;16.388;2023-08-06T04:55:13;98243.44;;;15.69;100.00
47726;BME280;33483;48.294;16.388;2023-08-06T04:57:40;98229.56;;;15.71;100.00
47726;BME280;33483;48.294;16.388;2023-08-06T05:00:07;98242.50;;;15.76;100.00
47726;BME280;33483;48.294;16.388;2023-08-06T05:02:35;98246.47;;;15.73;100.00
47726;BME280;33483;48.294;16.388;2023-08-06T05:05:04;98252.94;;;15.75;100.00
47726;BME280;33483;48.294;16.388;2023-08-06T05:07:32;98248.22;;;15.78;100.00
47726;BME280;33483;48.294;16.388;2023-08-06T05:09:59;98250.56;;;15.82;100.00
47726;BME280;33483;48.294;16.388;2023-08-06T05:12:26;98248.66;;;15.84;100.00
47726;BME280;33483;48.294;16.388;2023-08-06T05:14:53;98240.41;;;15.86;100.00
47726;BME280;33483;48.294;16.388;2023-08-06T05:17:20;98238.00;;;15.92;100.00
47726;BME280;33483;48.294;16.388;2023-08-06T05:19:52;98244.06;;;15.89;100.00
47726;BME280;33483;48.294;16.388;2023-08-06T05:22:19;98254.38;;;15.86;100.00
47726;BME280;33483;48.294;16.388;2023-08-06T05:24:46;98258.63;;;15.87;100.00
47726;BME280;33483;48.294;16.388;2023-08-06T05:27:16;98252.44;;;15.89;100.00
47726;BME280;33483;48.294;16.388;2023-08-06T05:29:45;98251.38;;;15.94;100.00
47726;BME280;33483;48.294;16.388;2023-08-06T05:32:12;98251.13;;;15.90;100.00
47726;BME280;33483;48.294;16.388;2023-08-06T05:34:42;98256.25;;;15.93;100.00
47726;BME280;33483;48.294;16.388;2023-08-06T05:37:09;98256.97;;;15.94;100.00
47726;BME280;33483;48.294;16.388;2023-08-06T05:39:36;98255.66;;;15.95;100.00
47726;BME280;33483;48.294;16.388;2023-08-06T05:42:08;98248.72;;;15.96;100.00
47726;BME280;33483;48.294;16.388;2023-08-06T05:44:35;98256.06;;;16.01;100.00
47726;BME280;33483;48.294;16.388;2023-08-06T05:47:05;98259.88;;;16.05;100.00
47726;BME280;33483;48.294;16.388;2023-08-06T05:49:32;98247.94;;;16.05;100.00
47726;BME280;33483;48.294;16.388;2023-08-06T05:51:59;98259.28;;;16.07;100.00
47726;BME280;33483;48.294;16.388;2023-08-06T05:54:28;98253.69;;;16.07;100.00
47726;BME280;33483;48.294;16.388;2023-08-06T05:56:56;98270.59;;;16.09;100.00
47726;BME280;33483;48.294;16.388;2023-08-06T05:59:23;98255.41;;;16.12;100.00
47726;BME280;33483;48.294;16.388;2023-08-06T06:01:50;98266.13;;;16.15;100.00
47726;BME280;33483;48.294;16.388;2023-08-06T06:04:20;98253.28;;;16.22;100.00
47726;BME280;33483;48.294;16.388;2023-08-06T06:06:47;98262.41;;;16.22;100.00
47726;BME280;33483;48.294;16.388;2023-08-06T06:09:14;98266.66;;;16.23;100.00
47726;BME280;33483;48.294;16.388;2023-08-06T06:11:44;98268.63;;;16.21;100.00
47726;BME280;33483;48.294;16.388;2023-08-06T06:14:11;98278.88;;;16.28;100.00
47726;BME280;33483;48.294;16.388;2023-08-06T06:16:38;98289.03;;;16.23;100.00
47726;BME280;33483;48.294;16.388;2023-08-06T06:19:06;98293.78;;;16.21;100.00
47726;BME280;33483;48.294;16.388;2023-08-06T06:21:33;98290.69;;;16.17;100.00
47726;BME280;33483;48.294;16.388;2023-08-06T06:24:00;98309.19;;;16.22;100.00
47726;BME280;33483;48.294;16.388;2023-08-06T06:26:27;98297.78;;;16.18;100.00
47726;BME280;33483;48.294;16.388;2023-08-06T06:28:55;98295.50;;;16.26;100.00
47726;BME280;33483;48.294;16.388;2023-08-06T06:31:24;98295.66;;;16.28;100.00
47726;BME280;33483;48.294;16.388;2023-08-06T06:33:54;98302.97;;;16.33;100.00
47726;BME280;33483;48.294;16.388;2023-08-06T06:36:21;98307.81;;;16.32;100.00
47726;BME280;33483;48.294;16.388;2023-08-06T06:38:48;98310.59;;;16.42;100.00
47726;BME280;33483;48.294;16.388;2023-08-06T06:41:16;98301.00;;;16.45;100.00
47726;BME280;33483;48.294;16.388;2023-08-06T06:43:48;98307.03;;;16.51;100.00
47726;BME280;33483;48.294;16.388;2023-08-06T06:46:15;98297.81;;;16.60;100.00
47726;BME280;33483;48.294;16.388;2023-08-06T06:48:42;98306.16;;;16.69;100.00
47726;BME280;33483;48.294;16.388;2023-08-06T06:51:09;98306.34;;;16.83;100.00
47726;BME280;33483;48.294;16.388;2023-08-06T06:53:36;98301.03;;;16.87;100.00
47726;BME280;33483;48.294;16.388;2023-08-06T06:56:04;98305.81;;;16.96;100.00
47726;BME280;33483;48.294;16.388;2023-08-06T06:58:32;98304.28;;;17.05;100.00
47726;BME280;33483;48.294;16.388;2023-08-06T07:00:59;98306.59;;;17.08;100.00
47726;BME280;33483;48.294;16.388;2023-08-06T07:03:29;98306.63;;;17.20;100.00
47726;BME280;33483;48.294;16.388;2023-08-06T07:05:59;98296.69;;;17.28;100.00
47726;BME280;33483;48.294;16.388;2023-08-06T07:08:26;98310.06;;;17.30;100.00
47726;BME280;33483;48.294;16.388;2023-08-06T07:11:01;98305.72;;;17.38;100.00
47726;BME280;33483;48.294;16.388;2023-08-06T07:13:28;98303.03;;;17.40;100.00
47726;BME280;33483;48.294;16.388;2023-08-06T07:15:58;98310.97;;;17.44;100.00
47726;BME280;33483;48.294;16.388;2023-08-06T07:18:25;98314.25;;;17.40;100.00
47726;BME280;33483;48.294;16.388;2023-08-06T07:20:55;98310.06;;;17.51;100.00
47726;BME280;33483;48.294;16.388;2023-08-06T07:23:23;98309.34;;;17.50;100.00
47726;BME280;33483;48.294;16.388;2023-08-06T07:25:51;98303.59;;;17.48;100.00
47726;BME280;33483;48.294;16.388;2023-08-06T07:28:18;98312.19;;;17.41;100.00
47726;BME280;33483;48.294;16.388;2023-08-06T07:30:45;98314.00;;;17.36;100.00
47726;BME280;33483;48.294;16.388;2023-08-06T07:33:12;98311.44;;;17.40;100.00
47726;BME280;33483;48.294;16.388;2023-08-06T07:35:40;98299.16;;;17.45;100.00
47726;BME280;33483;48.294;16.388;2023-08-06T07:38:07;98311.09;;;17.46;100.00
47726;BME280;33483;48.294;16.388;2023-08-06T07:40:35;98309.19;;;17.48;100.00
47726;BME280;33483;48.294;16.388;2023-08-06T07:43:02;98298.63;;;17.58;100.00
47726;BME280;33483;48.294;16.388;2023-08-06T07:45:32;98292.28;;;17.58;100.00
47726;BME280;33483;48.294;16.388;2023-08-06T07:47:59;98294.88;;;17.77;100.00
47726;BME280;33483;48.294;16.388;2023-08-06T07:50:27;98302.09;;;17.80;100.00
47726;BME280;33483;48.294;16.388;2023-08-06T07:52:53;98308.31;;;17.90;100.00
47726;BME280;33483;48.294;16.388;2023-08-06T07:55:21;98305.13;;;18.07;100.00
47726;BME280;33483;48.294;16.388;2023-08-06T07:57:48;98299.03;;;18.11;100.00
47726;BME280;33483;48.294;16.388;2023-08-06T08:00:17;98284.91;;;18.09;100.00
47726;BME280;33483;48.294;16.388;2023-08-06T08:02:44;98293.91;;;18.19;100.00
47726;BME280;33483;48.294;16.388;2023-08-06T08:05:13;98290.88;;;18.03;100.00
47726;BME280;33483;48.294;16.388;2023-08-06T08:07:43;98292.94;;;17.91;100.00
47726;BME280;33483;48.294;16.388;2023-08-06T08:10:11;98296.59;;;17.93;100.00
47726;BME280;33483;48.294;16.388;2023-08-06T08:12:38;98307.56;;;17.89;100.00
47726;BME280;33483;48.294;16.388;2023-08-06T08:15:06;98302.66;;;17.78;100.00
47726;BME280;33483;48.294;16.388;2023-08-06T08:17:35;98312.03;;;17.71;100.00
47726;BME280;33483;48.294;16.388;2023-08-06T08:20:05;98310.69;;;17.61;100.00
47726;BME280;33483;48.294;16.388;2023-08-06T08:22:32;98304.22;;;17.47;100.00
47726;BME280;33483;48.294;16.388;2023-08-06T08:25:03;98300.19;;;17.50;100.00
47726;BME280;33483;48.294;16.388;2023-08-06T08:27:30;98296.53;;;17.47;100.00
47726;BME280;33483;48.294;16.388;2023-08-06T08:29:59;98298.50;;;17.56;100.00
47726;BME280;33483;48.294;16.388;2023-08-06T08:32:26;98294.59;;;17.61;100.00
47726;BME280;33483;48.294;16.388;2023-08-06T08:34:53;98285.34;;;17.59;100.00
47726;BME280;33483;48.294;16.388;2023-08-06T08:37:20;98291.31;;;17.65;100.00
47726;BME280;33483;48.294;16.388;2023-08-06T08:39:48;98282.66;;;17.61;100.00
47726;BME280;33483;48.294;16.388;2023-08-06T08:42:15;98286.56;;;17.56;100.00
47726;BME280;33483;48.294;16.388;2023-08-06T08:44:42;98293.50;;;17.66;100.00
47726;BME280;33483;48.294;16.388;2023-08-06T08:47:10;98318.84;;;17.57;100.00
47726;BME280;33483;48.294;16.388;2023-08-06T08:49:37;98301.16;;;17.54;100.00
47726;BME280;33483;48.294;16.388;2023-08-06T08:52:05;98294.25;;;17.67;100.00
47726;BME280;33483;48.294;16.388;2023-08-06T08:54:33;98298.75;;;17.72;100.00
47726;BME280;33483;48.294;16.388;2023-08-06T08:57:01;98293.03;;;17.70;100.00
47726;BME280;33483;48.294;16.388;2023-08-06T08:59:29;98299.41;;;17.93;100.00
47726;BME280;33483;48.294;16.388;2023-08-06T09:01:56;98298.31;;;18.22;100.00
47726;BME280;33483;48.294;16.388;2023-08-06T09:04:24;98300.38;;;18.33;100.00
47726;BME280;33483;48.294;16.388;2023-08-06T09:06:53;98296.13;;;18.43;100.00
47726;BME280;33483;48.294;16.388;2023-08-06T09:09:39;98299.53;;;18.42;100.00
47726;BME280;33483;48.294;16.388;2023-08-06T09:12:12;98300.25;;;18.31;100.00
47726;BME280;33483;48.294;16.388;2023-08-06T09:14:41;98309.53;;;18.22;100.00
47726;BME280;33483;48.294;16.388;2023-08-06T09:17:08;98327.66;;;17.97;100.00
47726;BME280;33483;48.294;16.388;2023-08-06T09:19:41;98329.84;;;17.87;100.00
47726;BME280;33483;48.294;16.388;2023-08-06T09:22:11;98339.22;;;17.80;100.00
47726;BME280;33483;48.294;16.388;2023-08-06T09:24:43;98344.84;;;17.80;100.00
47726;BME280;33483;48.294;16.388;2023-08-06T09:27:11;98346.44;;;17.83;100.00
47726;BME280;33483;48.294;16.388;2023-08-06T09:29:43;98332.16;;;17.79;100.00
47726;BME280;33483;48.294;16.388;2023-08-06T09:32:11;98319.75;;;17.82;100.00
47726;BME280;33483;48.294;16.388;2023-08-06T09:34:39;98325.59;;;17.86;100.00
47726;BME280;33483;48.294;16.388;2023-08-06T09:37:08;98328.75;;;17.92;100.00
47726;BME280;33483;48.294;16.388;2023-08-06T09:39:40;98330.25;;;17.93;100.00
47726;BME280;33483;48.294;16.388;2023-08-06T09:42:08;98328.75;;;17.92;100.00
47726;BME280;33483;48.294;16.388;2023-08-06T09:44:35;98337.19;;;17.92;100.00
47726;BME280;33483;48.294;16.388;2023-08-06T09:47:03;98339.63;;;17.86;100.00
47726;BME280;33483;48.294;16.388;2023-08-06T09:51:57;98338.88;;;17.86;100.00
47726;BME280;33483;48.294;16.388;2023-08-06T09:54:27;98341.19;;;17.78;100.00
47726;BME280;33483;48.294;16.388;2023-08-06T09:56:55;98342.16;;;17.71;100.00
47726;BME280;33483;48.294;16.388;2023-08-06T09:59:23;98340.94;;;17.74;100.00
47726;BME280;33483;48.294;16.388;2023-08-06T10:01:51;98345.66;;;17.71;100.00
47726;BME280;33483;48.294;16.388;2023-08-06T10:04:19;98335.47;;;17.76;100.00
47726;BME280;33483;48.294;16.388;2023-08-06T10:06:51;98333.41;;;17.76;100.00
47726;BME280;33483;48.294;16.388;2023-08-06T10:09:19;98333.88;;;17.73;100.00
47726;BME280;33483;48.294;16.388;2023-08-06T10:11:49;98338.47;;;17.68;100.00
47726;BME280;33483;48.294;16.388;2023-08-06T10:14:25;98338.97;;;17.65;100.00
47726;BME280;33483;48.294;16.388;2023-08-06T10:16:54;98339.44;;;17.61;100.00
47726;BME280;33483;48.294;16.388;2023-08-06T10:19:23;98348.84;;;17.66;100.00
47726;BME280;33483;48.294;16.388;2023-08-06T10:25:00;98345.66;;;17.60;100.00
47726;BME280;33483;48.294;16.388;2023-08-06T10:27:41;98361.84;;;17.61;100.00
47726;BME280;33483;48.294;16.388;2023-08-06T10:30:29;98360.41;;;17.60;100.00
47726;BME280;33483;48.294;16.388;2023-08-06T10:33:02;98366.50;;;17.68;100.00
47726;BME280;33483;48.294;16.388;2023-08-06T10:35:37;98373.94;;;17.75;100.00
47726;BME280;33483;48.294;16.388;2023-08-06T10:38:11;98367.75;;;17.77;100.00
47726;BME280;33483;48.294;16.388;2023-08-06T10:40:39;98366.78;;;17.84;100.00
47726;BME280;33483;48.294;16.388;2023-08-06T10:43:07;98367.28;;;17.92;100.00
47726;BME280;33483;48.294;16.388;2023-08-06T10:45:37;98376.56;;;17.94;100.00
47726;BME280;33483;48.294;16.388;2023-08-06T10:48:04;98379.97;;;18.05;100.00
47726;BME280;33483;48.294;16.388;2023-08-06T10:50:32;98381.94;;;18.14;100.00
47726;BME280;33483;48.294;16.388;2023-08-06T10:53:03;98369.63;;;18.19;100.00
47726;BME280;33483;48.294;16.388;2023-08-06T10:55:32;98381.34;;;18.27;100.00
47726;BME280;33483;48.294;16.388;2023-08-06T10:57:59;98375.25;;;18.19;100.00
47726;BME280;33483;48.294;16.388;2023-08-06T11:00:26;98376.59;;;18.18;100.00
47726;BME280;33483;48.294;16.388;2023-08-06T11:02:53;98380.00;;;18.16;100.00
47726;BME280;33483;48.294;16.388;2023-08-06T11:05:22;98380.63;;;18.15;100.00
47726;BME280;33483;48.294;16.388;2023-08-06T11:07:52;98381.81;;;18.12;100.00
47726;BME280;33483;48.294;16.388;2023-08-06T11:10:22;98370.38;;;18.08;100.00
47726;BME280;33483;48.294;16.388;2023-08-06T11:12:51;98386.91;;;17.92;100.00
47726;BME280;33483;48.294;16.388;2023-08-06T11:15:20;98385.91;;;17.87;100.00
47726;BME280;33483;48.294;16.388;2023-08-06T11:17:47;98387.75;;;17.94;100.00
47726;BME280;33483;48.294;16.388;2023-08-06T11:20:14;98389.47;;;17.99;100.00
47726;BME280;33483;48.294;16.388;2023-08-06T11:22:43;98390.13;;;18.10;100.00
47726;BME280;33483;48.294;16.388;2023-08-06T11:25:11;98396.59;;;18.24;100.00
47726;BME280;33483;48.294;16.388;2023-08-06T11:27:38;98389.16;;;18.40;100.00
47726;BME280;33483;48.294;16.388;2023-08-06T11:30:05;98398.09;;;18.48;100.00
47726;BME280;33483;48.294;16.388;2023-08-06T11:32:32;98395.28;;;18.59;100.00
47726;BME280;33483;48.294;16.388;2023-08-06T11:35:09;98394.16;;;18.76;100.00
47726;BME280;33483;48.294;16.388;2023-08-06T11:37:36;98400.16;;;18.82;100.00
47726;BME280;33483;48.294;16.388;2023-08-06T11:40:08;98396.00;;;18.94;100.00
47726;BME280;33483;48.294;16.388;2023-08-06T11:42:37;98403.78;;;18.96;100.00
47726;BME280;33483;48.294;16.388;2023-08-06T11:45:05;98397.81;;;19.01;100.00
47726;BME280;33483;48.294;16.388;2023-08-06T11:47:32;98406.97;;;18.90;100.00
47726;BME280;33483;48.294;16.388;2023-08-06T11:49:59;98405.66;;;18.91;100.00
47726;BME280;33483;48.294;16.388;2023-08-06T11:52:26;98407.84;;;18.81;100.00
47726;BME280;33483;48.294;16.388;2023-08-06T11:57:30;98410.91;;;18.62;100.00
47726;BME280;33483;48.294;16.388;2023-08-06T12:00:10;98430.28;;;18.47;100.00
47726;BME280;33483;48.294;16.388;2023-08-06T12:02:44;98426.53;;;18.42;100.00
47726;BME280;33483;48.294;16.388;2023-08-06T12:05:15;98424.56;;;18.45;100.00
47726;BME280;33483;48.294;16.388;2023-08-06T12:07:49;98421.03;;;18.44;100.00
47726;BME280;33483;48.294;16.388;2023-08-06T12:10:18;98427.13;;;18.41;100.00
47726;BME280;33483;48.294;16.388;2023-08-06T12:12:48;98427.13;;;18.41;100.00
47726;BME280;33483;48.294;16.388;2023-08-06T12:15:17;98418.09;;;18.54;100.00
47726;BME280;33483;48.294;16.388;2023-08-06T12:17:44;98432.13;;;18.54;100.00
47726;BME280;33483;48.294;16.388;2023-08-06T12:20:11;98424.34;;;18.41;100.00
47726;BME280;33483;48.294;16.388;2023-08-06T12:22:38;98427.94;;;18.32;100.00
47726;BME280;33483;48.294;16.388;2023-08-06T12:25:13;98430.41;;;18.37;100.00
47726;BME280;33483;48.294;16.388;2023-08-06T12:27:44;98430.22;;;18.24;100.00
47726;BME280;33483;48.294;16.388;2023-08-06T12:30:14;98429.00;;;18.15;100.00
47726;BME280;33483;48.294;16.388;2023-08-06T12:32:41;98437.56;;;18.17;100.00
47726;BME280;33483;48.294;16.388;2023-08-06T12:35:08;98430.38;;;18.26;100.00
47726;BME280;33483;48.294;16.388;2023-08-06T12:37:36;98437.06;;;18.21;100.00
47726;BME280;33483;48.294;16.388;2023-08-06T12:40:05;98434.59;;;18.04;100.00
47726;BME280;33483;48.294;16.388;2023-08-06T12:42:53;98440.00;;;18.23;100.00
47726;BME280;33483;48.294;16.388;2023-08-06T12:45:20;98437.56;;;18.17;100.00
47726;BME280;33483;48.294;16.388;2023-08-06T12:47:48;98439.50;;;18.15;100.00
47726;BME280;33483;48.294;16.388;2023-08-06T12:50:17;98441.44;;;18.12;100.00
47726;BME280;33483;48.294;16.388;2023-08-06T12:52:44;98435.47;;;18.18;100.00
47726;BME280;33483;48.294;16.388;2023-08-06T12:55:12;98440.34;;;18.17;100.00
47726;BME280;33483;48.294;16.388;2023-08-06T12:57:39;98439.75;;;18.19;100.00
47726;BME280;33483;48.294;16.388;2023-08-06T13:00:24;98445.00;;;18.24;100.00
47726;BME280;33483;48.294;16.388;2023-08-06T13:02:51;98446.09;;;18.31;100.00